createdAt,value
2023-04-08T00:00:01.509Z,11.30
2023-04-08T00:01:21.930Z,11.30
2023-04-08T00:02:42.799Z,11.20
2023-04-08T00:04:03.709Z,11.20
2023-04-08T00:05:24.526Z,11.10
2023-04-08T00:06:44.950Z,11.10
2023-04-08T00:08:06.173Z,11.20
2023-04-08T00:09:26.819Z,11.20
2023-04-08T00:10:47.500Z,11.20
2023-04-08T00:12:08.203Z,11.20
2023-04-08T00:13:30.453Z,11.20
2023-04-08T00:14:51.195Z,11.20
2023-04-08T00:16:12.172Z,11.10
2023-04-08T00:17:32.767Z,11.10
2023-04-08T00:18:53.711Z,11.00
2023-04-08T00:20:14.166Z,11.00
2023-04-08T00:21:34.928Z,11.10
2023-04-08T00:22:55.583Z,11.10
2023-04-08T00:24:16.180Z,11.10
2023-04-08T00:25:37.244Z,11.00
2023-04-08T00:26:58.246Z,11.20
2023-04-08T00:28:19.185Z,11.20
2023-04-08T00:29:40.934Z,11.20
2023-04-08T00:31:01.645Z,11.20
2023-04-08T00:32:22.330Z,11.20
2023-04-08T00:33:42.996Z,11.30
2023-04-08T00:35:04.273Z,11.30
2023-04-08T00:36:27.389Z,11.30
2023-04-08T00:37:48.023Z,11.20
2023-04-08T00:39:08.561Z,11.20
2023-04-08T00:40:29.285Z,11.20
2023-04-08T00:41:49.767Z,11.20
2023-04-08T00:43:10.585Z,11.30
2023-04-08T00:44:31.013Z,11.20
2023-04-08T00:45:52.778Z,11.20
2023-04-08T00:47:14.292Z,11.20
2023-04-08T00:48:34.692Z,11.20
2023-04-08T00:49:55.496Z,11.20
2023-04-08T00:51:15.868Z,11.20
2023-04-08T00:52:36.383Z,11.20
2023-04-08T00:53:57.360Z,11.20
2023-04-08T00:55:17.824Z,11.20
2023-04-08T00:56:38.781Z,11.20
2023-04-08T00:57:59.306Z,11.20
2023-04-08T00:59:20.021Z,11.20
2023-04-08T01:00:44.018Z,11.10
2023-04-08T01:02:14.891Z,11.10
2023-04-08T01:03:44.167Z,11.10
2023-04-08T01:05:07.388Z,11.00
2023-04-08T01:06:32.460Z,11.00
2023-04-08T01:07:55.795Z,11.00
2023-04-08T01:09:19.612Z,11.00
2023-04-08T01:10:41.302Z,11.10
2023-04-08T01:12:05.540Z,11.10
2023-04-08T01:13:26.873Z,11.10
2023-04-08T01:14:47.545Z,11.20
2023-04-08T01:16:10.299Z,11.20
2023-04-08T01:17:33.361Z,11.20
2023-04-08T01:18:54.779Z,11.10
2023-04-08T01:20:16.402Z,11.10
2023-04-08T01:21:37.404Z,11.20
2023-04-08T01:23:06.304Z,11.20
2023-04-08T01:24:29.820Z,11.00
2023-04-08T01:25:52.425Z,11.00
2023-04-08T01:27:13.949Z,11.00
2023-04-08T01:28:35.520Z,11.10
2023-04-08T01:29:56.178Z,11.10
2023-04-08T01:31:17.488Z,11.10
2023-04-08T01:32:38.914Z,11.20
2023-04-08T01:34:00.341Z,11.20
2023-04-08T01:35:20.971Z,11.10
2023-04-08T01:36:42.610Z,11.20
2023-04-08T01:38:03.586Z,11.30
2023-04-08T01:39:24.559Z,11.30
2023-04-08T01:40:47.128Z,11.30
2023-04-08T01:42:09.193Z,11.30
2023-04-08T01:43:29.986Z,11.30
2023-04-08T01:44:51.289Z,11.30
2023-04-08T01:46:12.964Z,11.40
2023-04-08T01:47:34.919Z,11.40
2023-04-08T01:48:55.995Z,11.40
2023-04-08T01:50:17.204Z,11.30
2023-04-08T01:51:38.843Z,11.30
2023-04-08T01:53:00.762Z,11.30
2023-04-08T01:54:21.265Z,11.30
2023-04-08T01:55:42.908Z,11.30
2023-04-08T01:57:05.925Z,11.20
2023-04-08T01:58:29.928Z,11.30
2023-04-08T01:59:52.548Z,11.30
2023-04-08T02:01:17.804Z,11.30
2023-04-08T02:02:39.005Z,11.30
2023-04-08T02:04:00.863Z,11.30
2023-04-08T02:05:21.407Z,11.30
2023-04-08T02:06:41.952Z,11.40
2023-04-08T02:08:02.602Z,11.40
2023-04-08T02:09:23.274Z,11.30
2023-04-08T02:10:43.641Z,11.20
2023-04-08T02:12:04.134Z,11.20
2023-04-08T02:13:25.223Z,11.20
2023-04-08T02:14:47.414Z,11.20
2023-04-08T02:16:15.730Z,11.20
2023-04-08T02:17:41.349Z,11.10
2023-04-08T02:19:06.904Z,11.20
2023-04-08T02:20:31.369Z,11.20
2023-04-08T02:21:57.689Z,11.20
2023-04-08T02:23:20.955Z,11.20
2023-04-08T02:24:42.038Z,11.20
2023-04-08T02:26:03.494Z,11.20
2023-04-08T02:27:25.107Z,11.20
2023-04-08T02:28:45.243Z,11.20
2023-04-08T02:30:08.730Z,11.30
2023-04-08T02:31:29.882Z,11.30
2023-04-08T02:32:50.389Z,11.30
2023-04-08T02:34:11.290Z,11.30
2023-04-08T02:35:32.052Z,11.20
2023-04-08T02:36:52.557Z,11.20
2023-04-08T02:38:13.569Z,11.20
2023-04-08T02:39:34.705Z,11.20
2023-04-08T02:40:55.255Z,11.20
2023-04-08T02:42:15.608Z,11.20
2023-04-08T02:43:36.332Z,11.20
2023-04-08T02:44:57.478Z,11.20
2023-04-08T02:46:19.809Z,11.20
2023-04-08T02:47:40.824Z,11.20
2023-04-08T02:49:01.538Z,11.20
2023-04-08T02:50:22.183Z,11.30
2023-04-08T02:51:42.955Z,11.30
2023-04-08T02:53:03.954Z,11.30
2023-04-08T02:54:24.718Z,11.30
2023-04-08T02:55:45.498Z,11.20
2023-04-08T02:57:06.141Z,11.20
2023-04-08T02:58:26.724Z,11.30
2023-04-08T02:59:47.252Z,11.30
2023-04-08T03:01:09.064Z,11.30
2023-04-08T03:02:31.254Z,11.30
2023-04-08T03:03:51.950Z,11.30
2023-04-08T03:05:12.351Z,11.30
2023-04-08T03:06:33.068Z,11.40
2023-04-08T03:07:53.830Z,11.40
2023-04-08T03:09:14.920Z,11.40
2023-04-08T03:10:35.597Z,11.30
2023-04-08T03:11:56.100Z,11.30
2023-04-08T03:13:16.742Z,11.40
2023-04-08T03:14:37.437Z,11.40
2023-04-08T03:15:58.334Z,11.40
2023-04-08T03:17:19.147Z,11.30
2023-04-08T03:18:41.224Z,11.40
2023-04-08T03:20:01.873Z,11.40
2023-04-08T03:21:22.368Z,11.20
2023-04-08T03:22:42.983Z,11.20
2023-04-08T03:24:03.974Z,11.20
2023-04-08T03:25:24.625Z,11.30
2023-04-08T03:26:45.265Z,11.30
2023-04-08T03:28:05.876Z,11.40
2023-04-08T03:29:26.390Z,11.40
2023-04-08T03:30:47.178Z,11.40
2023-04-08T03:32:08.052Z,11.40
2023-04-08T03:33:28.876Z,11.40
2023-04-08T03:34:50.994Z,11.40
2023-04-08T03:36:11.519Z,11.30
2023-04-08T03:37:32.418Z,11.10
2023-04-08T03:38:53.244Z,11.20
2023-04-08T03:40:14.102Z,11.20
2023-04-08T03:41:34.714Z,11.20
2023-04-08T03:42:55.332Z,11.30
2023-04-08T03:44:16.023Z,11.30
2023-04-08T03:45:36.794Z,11.20
2023-04-08T03:46:57.495Z,11.20
2023-04-08T03:48:18.234Z,11.20
2023-04-08T03:49:38.949Z,11.30
2023-04-08T03:51:00.979Z,11.30
2023-04-08T03:52:21.714Z,11.30
2023-04-08T03:53:42.161Z,11.30
2023-04-08T03:55:02.424Z,11.30
2023-04-08T03:56:22.765Z,11.30
2023-04-08T03:57:44.376Z,11.30
2023-04-08T03:59:04.817Z,11.40
2023-04-08T04:00:25.635Z,11.30
2023-04-08T04:01:46.414Z,11.30
2023-04-08T04:03:07.145Z,11.30
2023-04-08T04:04:27.667Z,11.30
2023-04-08T04:05:48.383Z,11.30
2023-04-08T04:07:10.051Z,11.30
2023-04-08T04:08:30.877Z,11.20
2023-04-08T04:09:51.577Z,11.20
2023-04-08T04:11:12.491Z,11.20
2023-04-08T04:12:33.012Z,11.20
2023-04-08T04:13:53.507Z,11.20
2023-04-08T04:15:14.168Z,11.20
2023-04-08T04:16:34.836Z,11.20
2023-04-08T04:17:55.596Z,11.20
2023-04-08T04:19:16.330Z,11.20
2023-04-08T04:20:39.957Z,11.20
2023-04-08T04:22:00.500Z,11.10
2023-04-08T04:23:22.497Z,11.10
2023-04-08T04:24:47.301Z,11.10
2023-04-08T04:26:08.968Z,11.10
2023-04-08T04:27:29.558Z,11.10
2023-04-08T04:28:50.647Z,11.00
2023-04-08T04:30:11.617Z,11.00
2023-04-08T04:31:32.275Z,10.90
2023-04-08T04:32:52.969Z,10.90
2023-04-08T04:34:13.481Z,10.90
2023-04-08T04:35:34.233Z,10.90
2023-04-08T04:36:54.999Z,10.90
2023-04-08T04:38:15.750Z,10.90
2023-04-08T04:39:38.011Z,10.90
2023-04-08T04:40:58.689Z,10.90
2023-04-08T04:42:19.294Z,10.90
2023-04-08T04:43:39.988Z,10.80
2023-04-08T04:45:00.725Z,10.80
2023-04-08T04:46:21.484Z,10.80
2023-04-08T04:47:42.021Z,10.90
2023-04-08T04:49:03.041Z,10.90
2023-04-08T04:50:23.803Z,10.90
2023-04-08T04:51:44.218Z,10.90
2023-04-08T04:53:04.818Z,10.90
2023-04-08T04:54:25.289Z,10.90
2023-04-08T04:55:47.301Z,10.80
2023-04-08T04:57:07.791Z,10.80
2023-04-08T04:58:28.552Z,10.70
2023-04-08T04:59:49.357Z,10.50
2023-04-08T05:01:10.101Z,10.40
2023-04-08T05:02:31.004Z,10.60
2023-04-08T05:03:51.755Z,10.50
2023-04-08T05:05:12.262Z,10.30
2023-04-08T05:06:33.158Z,10.20
2023-04-08T05:07:53.876Z,10.20
2023-04-08T05:09:14.538Z,10.30
2023-04-08T05:10:34.930Z,10.40
2023-04-08T05:11:57.411Z,10.40
2023-04-08T05:13:18.706Z,10.40
2023-04-08T05:14:39.398Z,10.30
2023-04-08T05:16:00.807Z,10.40
2023-04-08T05:17:21.393Z,10.50
2023-04-08T05:18:42.195Z,10.60
2023-04-08T05:20:02.830Z,10.40
2023-04-08T05:21:23.403Z,10.40
2023-04-08T05:22:44.142Z,10.50
2023-04-08T05:24:05.200Z,10.50
2023-04-08T05:25:25.484Z,10.50
2023-04-08T05:26:46.179Z,10.50
2023-04-08T05:28:09.146Z,10.50
2023-04-08T05:29:29.697Z,10.50
2023-04-08T05:30:50.740Z,10.40
2023-04-08T05:32:11.366Z,10.40
2023-04-08T05:33:32.237Z,10.40
2023-04-08T05:34:52.787Z,10.30
2023-04-08T05:36:14.102Z,10.30
2023-04-08T05:37:35.014Z,10.30
2023-04-08T05:38:55.670Z,10.10
2023-04-08T05:40:16.434Z,10.20
2023-04-08T05:41:37.094Z,10.30
2023-04-08T05:42:57.725Z,10.30
2023-04-08T05:44:19.476Z,10.30
2023-04-08T05:45:40.144Z,10.40
2023-04-08T05:47:00.845Z,10.40
2023-04-08T05:48:21.564Z,10.30
2023-04-08T05:49:42.132Z,10.20
2023-04-08T05:51:03.348Z,10.10
2023-04-08T05:52:24.685Z,10.00
2023-04-08T05:53:45.706Z,10.00
2023-04-08T05:55:06.850Z,10.10
2023-04-08T05:56:27.316Z,10.20
2023-04-08T05:57:47.795Z,10.20
2023-04-08T05:59:08.217Z,10.30
2023-04-08T06:00:29.996Z,10.30
2023-04-08T06:01:51.080Z,10.30
2023-04-08T06:03:12.155Z,10.20
2023-04-08T06:04:33.014Z,10.10
2023-04-08T06:05:53.494Z,10.10
2023-04-08T06:07:14.009Z,10.10
2023-04-08T06:08:34.963Z,10.00
2023-04-08T06:09:55.844Z,10.00
2023-04-08T06:11:16.616Z,10.00
2023-04-08T06:12:37.570Z,9.90
2023-04-08T06:13:58.098Z,9.80
2023-04-08T06:15:18.855Z,9.90
2023-04-08T06:16:40.705Z,9.80
2023-04-08T06:18:01.305Z,9.80
2023-04-08T06:19:22.125Z,10.00
2023-04-08T06:20:42.596Z,10.00
2023-04-08T06:22:03.265Z,10.00
2023-04-08T06:23:23.598Z,10.10
2023-04-08T06:24:44.351Z,10.10
2023-04-08T06:26:05.209Z,10.10
2023-04-08T06:27:26.031Z,9.80
2023-04-08T06:28:46.525Z,9.90
2023-04-08T06:30:08.718Z,10.00
2023-04-08T06:31:29.907Z,10.10
2023-04-08T06:32:52.181Z,10.10
2023-04-08T06:34:12.542Z,10.10
2023-04-08T06:35:33.009Z,10.20
2023-04-08T06:36:53.254Z,10.20
2023-04-08T06:38:13.967Z,10.20
2023-04-08T06:39:34.763Z,10.20
2023-04-08T06:40:55.650Z,10.20
2023-04-08T06:42:15.934Z,10.30
2023-04-08T06:43:36.499Z,10.30
2023-04-08T06:44:56.800Z,10.30
2023-04-08T06:46:17.382Z,10.30
2023-04-08T06:47:38.107Z,10.30
2023-04-08T06:49:00.479Z,10.30
2023-04-08T06:50:21.571Z,10.20
2023-04-08T06:51:41.939Z,10.20
2023-04-08T06:53:02.569Z,9.90
2023-04-08T06:54:25.686Z,9.90
2023-04-08T06:55:46.478Z,9.90
2023-04-08T06:57:06.724Z,10.10
2023-04-08T06:58:27.424Z,10.00
2023-04-08T06:59:47.830Z,10.10
2023-04-08T07:01:08.490Z,10.20
2023-04-08T07:02:29.060Z,10.10
2023-04-08T07:03:49.532Z,10.10
2023-04-08T07:05:11.514Z,10.00
2023-04-08T07:06:32.336Z,10.20
2023-04-08T07:07:52.913Z,10.20
2023-04-08T07:09:13.581Z,10.30
2023-04-08T07:10:35.274Z,10.40
2023-04-08T07:11:55.786Z,10.40
2023-04-08T07:13:16.388Z,10.40
2023-04-08T07:14:36.702Z,10.30
2023-04-08T07:15:57.076Z,10.40
2023-04-08T07:17:17.691Z,10.50
2023-04-08T07:18:38.274Z,10.50
2023-04-08T07:19:59.502Z,10.40
2023-04-08T07:21:21.179Z,10.40
2023-04-08T07:22:41.635Z,10.50
2023-04-08T07:24:02.246Z,10.60
2023-04-08T07:25:22.870Z,10.60
2023-04-08T07:26:44.252Z,10.50
2023-04-08T07:28:10.883Z,10.40
2023-04-08T07:29:31.659Z,10.50
2023-04-08T07:30:52.366Z,10.60
2023-04-08T07:32:13.090Z,10.60
2023-04-08T07:33:33.674Z,10.70
2023-04-08T07:34:53.992Z,10.80
2023-04-08T07:36:14.630Z,10.90
2023-04-08T07:37:37.180Z,10.80
2023-04-08T07:38:57.893Z,10.80
2023-04-08T07:40:18.865Z,10.80
2023-04-08T07:41:39.225Z,10.90
2023-04-08T07:42:59.732Z,10.90
2023-04-08T07:44:20.301Z,10.90
2023-04-08T07:45:40.674Z,11.00
2023-04-08T07:47:01.158Z,11.10
2023-04-08T07:48:21.925Z,11.10
2023-04-08T07:49:42.608Z,11.00
2023-04-08T07:51:09.047Z,10.90
2023-04-08T07:52:31.054Z,11.00
2023-04-08T07:53:52.716Z,11.00
2023-04-08T07:55:14.045Z,11.10
2023-04-08T07:56:34.729Z,11.20
2023-04-08T07:57:55.386Z,11.30
2023-04-08T07:59:16.121Z,11.40
2023-04-08T08:00:36.770Z,11.40
2023-04-08T08:01:57.538Z,11.50
2023-04-08T08:03:18.401Z,11.50
2023-04-08T08:04:39.202Z,11.60
2023-04-08T08:05:59.986Z,11.50
2023-04-08T08:07:20.585Z,11.50
2023-04-08T08:08:41.260Z,11.60
2023-04-08T08:10:03.026Z,11.70
2023-04-08T08:11:23.501Z,11.70
2023-04-08T08:12:44.496Z,11.80
2023-04-08T08:14:05.289Z,11.90
2023-04-08T08:15:25.700Z,12.00
2023-04-08T08:16:46.198Z,12.10
2023-04-08T08:18:06.849Z,12.10
2023-04-08T08:19:27.483Z,12.10
2023-04-08T08:20:47.864Z,12.20
2023-04-08T08:22:08.202Z,12.10
2023-04-08T08:23:28.687Z,12.20
2023-04-08T08:24:49.632Z,12.20
2023-04-08T08:26:11.661Z,12.20
2023-04-08T08:27:32.110Z,12.10
2023-04-08T08:28:52.603Z,12.20
2023-04-08T08:30:13.358Z,12.30
2023-04-08T08:31:33.904Z,12.30
2023-04-08T08:32:55.038Z,12.30
2023-04-08T08:34:16.089Z,12.20
2023-04-08T08:35:36.693Z,12.10
2023-04-08T08:36:57.105Z,12.00
2023-04-08T08:38:18.113Z,12.00
2023-04-08T08:39:38.996Z,11.80
2023-04-08T08:41:00.526Z,11.90
2023-04-08T08:42:23.782Z,11.90
2023-04-08T08:43:44.182Z,11.80
2023-04-08T08:45:05.730Z,11.70
2023-04-08T08:46:26.158Z,11.70
2023-04-08T08:47:49.050Z,11.50
2023-04-08T08:49:12.007Z,11.20
2023-04-08T08:50:33.299Z,11.40
2023-04-08T08:51:54.294Z,11.30
2023-04-08T08:53:14.962Z,11.20
2023-04-08T08:54:35.802Z,11.00
2023-04-08T08:57:20.200Z,10.90
2023-04-08T08:58:42.181Z,10.80
2023-04-08T09:00:02.817Z,10.70
2023-04-08T09:01:33.760Z,10.90
2023-04-08T09:02:54.859Z,11.10
2023-04-08T09:04:17.419Z,11.10
2023-04-08T09:05:47.797Z,11.20
2023-04-08T09:07:11.992Z,11.40
2023-04-08T09:08:34.138Z,11.50
2023-04-08T09:09:55.800Z,11.30
2023-04-08T09:11:16.871Z,11.40
2023-04-08T09:12:53.873Z,11.50
2023-04-08T09:14:20.328Z,11.40
2023-04-08T09:16:01.321Z,11.50
2023-04-08T09:17:32.389Z,11.50
2023-04-08T09:18:52.643Z,11.50
2023-04-08T09:20:13.525Z,11.40
2023-04-08T09:21:34.166Z,11.40
2023-04-08T09:22:59.064Z,11.40
2023-04-08T09:24:28.450Z,11.30
2023-04-08T09:25:48.723Z,11.40
2023-04-08T09:27:09.293Z,11.40
2023-04-08T09:28:29.465Z,11.50
2023-04-08T09:29:51.300Z,11.70
2023-04-08T09:31:22.201Z,11.80
2023-04-08T09:32:49.260Z,11.80
2023-04-08T09:34:11.405Z,11.70
2023-04-08T09:35:31.872Z,11.70
2023-04-08T09:36:53.465Z,11.80
2023-04-08T09:38:13.967Z,11.90
2023-04-08T09:39:34.453Z,11.90
2023-04-08T09:40:55.315Z,12.00
2023-04-08T09:42:19.658Z,12.10
2023-04-08T09:43:43.082Z,12.30
2023-04-08T09:45:05.732Z,12.40
2023-04-08T09:46:27.206Z,12.40
2023-04-08T09:47:57.251Z,12.50
2023-04-08T09:49:22.644Z,12.50
2023-04-08T09:50:43.849Z,12.60
2023-04-08T09:52:07.920Z,12.70
2023-04-08T09:53:34.357Z,12.80
2023-04-08T09:54:59.806Z,12.60
2023-04-08T09:56:20.743Z,12.60
2023-04-08T09:57:42.096Z,12.70
2023-04-08T09:59:03.697Z,12.70
2023-04-08T10:00:32.358Z,12.70
2023-04-08T10:01:54.444Z,12.80
2023-04-08T10:03:21.792Z,12.80
2023-04-08T10:04:46.078Z,12.80
2023-04-08T10:06:08.771Z,12.80
2023-04-08T10:07:29.633Z,12.80
2023-04-08T10:08:50.384Z,12.90
2023-04-08T10:10:11.087Z,13.10
2023-04-08T10:11:31.835Z,13.20
2023-04-08T10:12:52.531Z,13.10
2023-04-08T10:14:13.051Z,13.20
2023-04-08T10:15:35.537Z,13.20
2023-04-08T10:17:26.031Z,13.30
2023-04-08T10:18:46.656Z,13.30
2023-04-08T10:20:41.244Z,13.30
2023-04-08T10:22:02.138Z,13.40
2023-04-08T10:23:55.876Z,13.40
2023-04-08T10:25:30.107Z,13.50
2023-04-08T10:26:50.340Z,13.60
2023-04-08T10:28:26.486Z,13.80
2023-04-08T10:29:47.249Z,13.90
2023-04-08T10:31:22.210Z,13.90
2023-04-08T10:32:42.707Z,13.90
2023-04-08T10:34:15.924Z,13.90
2023-04-08T10:35:37.187Z,14.00
2023-04-08T10:36:59.585Z,14.00
2023-04-08T10:38:20.452Z,14.00
2023-04-08T10:39:49.428Z,14.00
2023-04-08T10:41:11.188Z,14.10
2023-04-08T10:42:31.920Z,14.10
2023-04-08T10:43:52.813Z,14.20
2023-04-08T10:45:16.893Z,14.30
2023-04-08T10:46:39.202Z,14.40
2023-04-08T10:48:15.005Z,14.40
2023-04-08T10:49:35.715Z,14.40
2023-04-08T10:50:57.714Z,14.40
2023-04-08T10:52:17.896Z,14.50
2023-04-08T10:53:40.199Z,14.50
2023-04-08T10:55:00.730Z,14.60
2023-04-08T10:56:21.154Z,14.70
2023-04-08T10:57:41.963Z,14.70
2023-04-08T10:59:02.774Z,14.70
2023-04-08T11:00:33.365Z,14.70
2023-04-08T11:01:55.364Z,14.90
2023-04-08T11:03:16.192Z,15.00
2023-04-08T11:04:41.971Z,15.10
2023-04-08T11:06:02.941Z,15.10
2023-04-08T11:07:23.416Z,15.20
2023-04-08T11:08:43.998Z,15.30
2023-04-08T11:10:06.443Z,15.30
2023-04-08T11:11:26.877Z,15.10
2023-04-08T11:12:48.398Z,15.10
2023-04-08T11:14:09.178Z,15.30
2023-04-08T11:15:30.833Z,15.40
2023-04-08T11:16:52.080Z,15.50
2023-04-08T11:18:14.267Z,15.60
2023-04-08T11:19:36.096Z,15.70
2023-04-08T11:21:00.079Z,15.60
2023-04-08T11:22:23.194Z,15.70
2023-04-08T11:23:44.133Z,15.60
2023-04-08T11:25:05.958Z,15.70
2023-04-08T11:26:26.060Z,15.90
2023-04-08T11:27:47.337Z,16.00
2023-04-08T11:29:11.276Z,16.10
2023-04-08T11:30:31.794Z,16.10
2023-04-08T11:31:52.472Z,16.20
2023-04-08T11:33:14.561Z,16.30
2023-04-08T11:34:39.326Z,16.40
2023-04-08T11:36:01.738Z,16.60
2023-04-08T11:37:26.285Z,16.80
2023-04-08T11:38:47.959Z,17.00
2023-04-08T11:40:10.344Z,17.00
2023-04-08T11:41:36.709Z,17.10
2023-04-08T11:43:09.365Z,17.10
2023-04-08T11:44:31.043Z,17.30
2023-04-08T11:45:51.698Z,17.40
2023-04-08T11:47:12.267Z,17.50
2023-04-08T11:48:34.166Z,17.60
2023-04-08T11:49:54.992Z,17.60
2023-04-08T11:51:15.658Z,17.60
2023-04-08T11:52:46.983Z,17.60
2023-04-08T11:54:26.305Z,17.70
2023-04-08T11:55:47.297Z,17.80
2023-04-08T11:57:07.831Z,17.80
2023-04-08T11:58:28.176Z,17.70
2023-04-08T11:59:48.925Z,17.80
2023-04-08T12:01:09.624Z,17.70
2023-04-08T12:02:30.366Z,17.70
2023-04-08T12:04:00.394Z,17.60
2023-04-08T12:05:21.347Z,17.60
2023-04-08T12:06:41.634Z,17.60
2023-04-08T12:08:02.397Z,17.70
2023-04-08T12:09:23.061Z,17.80
2023-04-08T12:10:43.289Z,17.80
2023-04-08T12:12:03.797Z,17.70
2023-04-08T12:13:24.559Z,17.60
2023-04-08T12:14:45.644Z,17.70
2023-04-08T12:16:06.987Z,17.70
2023-04-08T12:17:30.209Z,17.60
2023-04-08T12:18:50.865Z,17.60
2023-04-08T12:20:13.239Z,17.70
2023-04-08T12:21:34.015Z,17.70
2023-04-08T12:22:54.945Z,17.90
2023-04-08T12:24:15.337Z,17.90
2023-04-08T12:25:35.918Z,18.10
2023-04-08T12:26:56.772Z,18.10
2023-04-08T12:28:17.056Z,18.30
2023-04-08T12:29:38.106Z,18.20
2023-04-08T12:30:58.473Z,18.20
2023-04-08T12:32:18.696Z,18.40
2023-04-08T12:33:39.439Z,18.70
2023-04-08T12:34:59.918Z,18.60
2023-04-08T12:36:22.312Z,18.50
2023-04-08T12:37:42.694Z,18.60
2023-04-08T12:39:03.080Z,18.50
2023-04-08T12:40:23.631Z,18.80
2023-04-08T12:41:44.161Z,18.90
2023-04-08T12:43:05.075Z,19.00
2023-04-08T12:44:26.040Z,19.30
2023-04-08T12:45:46.894Z,19.40
2023-04-08T12:47:07.616Z,19.60
2023-04-08T12:48:28.240Z,19.40
2023-04-08T12:49:50.025Z,19.40
2023-04-08T12:51:11.107Z,19.50
2023-04-08T12:52:33.012Z,19.60
2023-04-08T12:53:56.639Z,19.70
2023-04-08T12:55:17.274Z,19.70
2023-04-08T12:56:38.117Z,19.70
2023-04-08T12:57:58.629Z,19.70
2023-04-08T12:59:19.162Z,19.90
2023-04-08T13:00:39.620Z,19.90
2023-04-08T13:02:00.181Z,19.80
2023-04-08T13:03:27.170Z,19.60
2023-04-08T13:04:54.059Z,19.40
2023-04-08T13:06:16.446Z,19.40
2023-04-08T13:07:44.862Z,19.40
2023-04-08T13:09:10.255Z,19.60
2023-04-08T13:10:31.400Z,19.70
2023-04-08T13:11:53.637Z,19.80
2023-04-08T13:13:19.961Z,20.00
2023-04-08T13:14:42.046Z,19.90
2023-04-08T13:16:05.367Z,19.80
2023-04-08T13:17:32.995Z,20.00
2023-04-08T13:18:55.998Z,19.90
2023-04-08T13:20:19.429Z,19.80
2023-04-08T13:21:42.750Z,19.70
2023-04-08T13:23:08.651Z,19.70
2023-04-08T13:24:30.894Z,19.80
2023-04-08T13:25:53.135Z,20.00
2023-04-08T13:27:17.320Z,20.20
2023-04-08T13:28:54.205Z,20.20
2023-04-08T13:30:21.596Z,20.30
2023-04-08T13:31:45.958Z,20.00
2023-04-08T13:33:07.869Z,20.10
2023-04-08T13:34:28.617Z,20.00
2023-04-08T13:35:49.389Z,19.80
2023-04-08T13:37:10.706Z,19.80
2023-04-08T13:38:33.236Z,20.10
2023-04-08T13:39:54.231Z,20.20
2023-04-08T13:41:15.404Z,20.20
2023-04-08T13:42:37.275Z,20.30
2023-04-08T13:43:58.229Z,20.20
2023-04-08T13:45:20.476Z,20.10
2023-04-08T13:46:42.164Z,20.20
2023-04-08T13:48:03.559Z,20.40
2023-04-08T13:49:25.089Z,20.60
2023-04-08T13:50:46.785Z,20.50
2023-04-08T13:52:07.961Z,20.50
2023-04-08T13:53:29.697Z,20.30
2023-04-08T13:54:53.596Z,20.40
2023-04-08T13:56:14.731Z,20.50
2023-04-08T13:57:36.169Z,20.40
2023-04-08T13:58:57.879Z,20.30
2023-04-08T14:00:18.614Z,20.20
2023-04-08T14:01:39.380Z,20.20
2023-04-08T14:03:00.363Z,19.90
2023-04-08T14:04:21.451Z,19.80
2023-04-08T14:05:42.153Z,20.00
2023-04-08T14:07:03.163Z,20.20
2023-04-08T14:08:23.747Z,20.00
2023-04-08T14:09:44.515Z,20.10
2023-04-08T14:11:07.330Z,20.00
2023-04-08T14:12:28.096Z,20.00
2023-04-08T14:13:49.042Z,20.00
2023-04-08T14:15:10.558Z,20.20
2023-04-08T14:16:31.903Z,20.40
2023-04-08T14:17:53.092Z,20.40
2023-04-08T14:19:14.071Z,20.40
2023-04-08T14:20:34.934Z,20.40
2023-04-08T14:21:57.978Z,20.20
2023-04-08T14:23:18.717Z,19.90
2023-04-08T14:24:39.686Z,19.80
2023-04-08T14:26:00.396Z,19.90
2023-04-08T14:27:22.129Z,19.90
2023-04-08T14:28:43.413Z,19.80
2023-04-08T14:30:05.941Z,19.60
2023-04-08T14:31:27.788Z,19.40
2023-04-08T14:32:49.140Z,19.60
2023-04-08T14:34:09.942Z,19.60
2023-04-08T14:35:30.441Z,19.50
2023-04-08T14:36:52.770Z,19.50
2023-04-08T14:38:14.041Z,19.60
2023-04-08T14:39:35.058Z,19.40
2023-04-08T14:40:55.671Z,19.70
2023-04-08T14:42:16.757Z,19.90
2023-04-08T14:43:39.086Z,19.90
2023-04-08T14:45:00.119Z,19.90
2023-04-08T14:46:21.690Z,19.90
2023-04-08T14:47:42.815Z,20.00
2023-04-08T14:49:03.785Z,20.10
2023-04-08T14:50:24.576Z,20.20
2023-04-08T14:51:45.617Z,20.00
2023-04-08T14:53:06.473Z,20.00
2023-04-08T14:54:27.553Z,19.70
2023-04-08T14:55:48.435Z,19.60
2023-04-08T14:57:09.023Z,19.50
2023-04-08T14:58:29.955Z,19.50
2023-04-08T14:59:52.458Z,19.60
2023-04-08T15:01:14.568Z,19.60
2023-04-08T15:02:35.469Z,19.50
2023-04-08T15:03:56.128Z,19.80
2023-04-08T15:05:17.229Z,19.80
2023-04-08T15:06:38.548Z,20.00
2023-04-08T15:07:59.455Z,20.20
2023-04-08T15:09:20.109Z,20.40
2023-04-08T15:10:40.590Z,20.40
2023-04-08T15:12:01.524Z,20.20
2023-04-08T15:13:22.098Z,20.00
2023-04-08T15:14:42.913Z,19.90
2023-04-08T15:16:05.386Z,19.80
2023-04-08T15:17:27.707Z,19.80
2023-04-08T15:18:48.805Z,19.90
2023-04-08T15:20:10.743Z,20.00
2023-04-08T15:21:31.112Z,20.10
2023-04-08T15:22:51.637Z,20.20
2023-04-08T15:24:12.895Z,20.20
2023-04-08T15:25:33.685Z,20.30
2023-04-08T15:26:54.553Z,20.30
2023-04-08T15:28:15.058Z,20.10
2023-04-08T15:29:36.293Z,19.80
2023-04-08T15:30:56.643Z,19.90
2023-04-08T15:32:18.576Z,19.80
2023-04-08T15:33:39.093Z,19.60
2023-04-08T15:34:59.877Z,19.80
2023-04-08T15:36:20.753Z,19.90
2023-04-08T15:37:41.397Z,19.90
2023-04-08T15:39:02.153Z,19.80
2023-04-08T15:40:22.817Z,19.60
2023-04-08T15:41:44.011Z,19.60
2023-04-08T15:43:04.512Z,19.40
2023-04-08T15:44:25.345Z,19.60
2023-04-08T15:45:46.435Z,19.50
2023-04-08T15:47:07.018Z,19.60
2023-04-08T15:48:29.046Z,20.00
2023-04-08T15:49:52.300Z,19.80
2023-04-08T15:51:13.251Z,19.80
2023-04-08T15:52:33.917Z,19.90
2023-04-08T15:53:54.869Z,20.10
2023-04-08T15:55:15.791Z,20.30
2023-04-08T15:56:36.320Z,20.30
2023-04-08T15:57:57.245Z,20.60
2023-04-08T15:59:17.941Z,20.40
2023-04-08T16:00:38.514Z,20.50
2023-04-08T16:01:59.266Z,20.40
2023-04-08T16:03:20.373Z,20.40
2023-04-08T16:04:42.700Z,20.40
2023-04-08T16:06:03.867Z,20.40
2023-04-08T16:07:24.617Z,20.30
2023-04-08T16:08:45.413Z,20.40
2023-04-08T16:10:07.446Z,20.50
2023-04-08T16:11:28.003Z,20.70
2023-04-08T16:12:49.611Z,20.80
2023-04-08T16:14:10.276Z,21.10
2023-04-08T16:15:31.267Z,21.00
2023-04-08T16:16:52.143Z,21.10
2023-04-08T16:18:12.801Z,20.90
2023-04-08T16:19:33.695Z,20.90
2023-04-08T16:20:55.972Z,21.00
2023-04-08T16:22:16.606Z,21.00
2023-04-08T16:23:37.368Z,20.90
2023-04-08T16:24:58.083Z,20.50
2023-04-08T16:26:19.180Z,20.70
2023-04-08T16:27:39.965Z,20.90
2023-04-08T16:29:00.570Z,20.90
2023-04-08T16:30:21.247Z,20.90
2023-04-08T16:31:42.312Z,20.80
2023-04-08T16:33:03.734Z,20.60
2023-04-08T16:34:24.691Z,20.70
2023-04-08T16:35:45.518Z,20.30
2023-04-08T16:37:08.043Z,20.30
2023-04-08T16:38:29.175Z,20.10
2023-04-08T16:39:49.927Z,20.00
2023-04-08T16:41:11.056Z,20.00
2023-04-08T16:42:32.439Z,19.70
2023-04-08T16:43:55.626Z,19.30
2023-04-08T16:45:19.221Z,19.20
2023-04-08T16:46:43.337Z,19.10
2023-04-08T16:48:05.597Z,19.30
2023-04-08T16:49:30.868Z,19.30
2023-04-08T16:50:54.004Z,19.30
2023-04-08T16:52:16.136Z,19.30
2023-04-08T16:53:37.137Z,19.50
2023-04-08T16:54:58.088Z,19.40
2023-04-08T16:56:18.836Z,19.40
2023-04-08T16:57:39.477Z,19.20
2023-04-08T16:59:00.410Z,19.20
2023-04-08T17:00:21.420Z,19.30
2023-04-08T17:01:42.181Z,19.00
2023-04-08T17:03:03.074Z,19.00
2023-04-08T17:04:24.216Z,19.00
2023-04-08T17:05:45.387Z,19.10
2023-04-08T17:07:07.234Z,19.10
2023-04-08T17:08:30.229Z,18.80
2023-04-08T17:09:51.486Z,18.70
2023-04-08T17:11:13.647Z,18.60
2023-04-08T17:12:35.910Z,18.40
2023-04-08T17:13:57.435Z,18.20
2023-04-08T17:15:18.494Z,18.20
2023-04-08T17:16:39.413Z,18.00
2023-04-08T17:18:00.282Z,18.00
2023-04-08T17:19:21.020Z,17.90
2023-04-08T17:20:41.576Z,17.90
2023-04-08T17:22:02.165Z,17.80
2023-04-08T17:23:22.906Z,17.70
2023-04-08T17:24:45.929Z,17.80
2023-04-08T17:26:10.442Z,17.60
2023-04-08T17:27:31.498Z,17.60
2023-04-08T17:28:52.624Z,17.50
2023-04-08T17:30:14.077Z,17.50
2023-04-08T17:31:35.053Z,17.40
2023-04-08T17:32:55.766Z,17.30
2023-04-08T17:34:17.699Z,17.10
2023-04-08T17:35:38.773Z,17.00